sensor_id;sensor_type;location;lat;lon;timestamp;P1;durP1;ratioP1;P2;durP2;ratioP2
7398;SDS011;3740;50.700;7.184;2023-02-26T00:02:24;7.07;;;5.03;;
7398;SDS011;3740;50.700;7.184;2023-02-26T00:04:49;7.80;;;4.70;;
7398;SDS011;3740;50.700;7.184;2023-02-26T00:07:15;9.03;;;4.87;;
7398;SDS011;3740;50.700;7.184;2023-02-26T00:09:41;8.47;;;4.60;;
7398;SDS011;3740;50.700;7.184;2023-02-26T00:12:08;7.23;;;4.83;;
7398;SDS011;3740;50.700;7.184;2023-02-26T00:14:35;7.53;;;4.97;;
7398;SDS011;3740;50.700;7.184;2023-02-26T00:19:57;8.20;;;5.13;;
7398;SDS011;3740;50.700;7.184;2023-02-26T00:22:23;7.93;;;5.03;;
7398;SDS011;3740;50.700;7.184;2023-02-26T00:24:49;9.33;;;5.77;;
7398;SDS011;3740;50.700;7.184;2023-02-26T00:27:15;10.37;;;5.80;;
7398;SDS011;3740;50.700;7.184;2023-02-26T00:29:40;12.10;;;6.40;;
7398;SDS011;3740;50.700;7.184;2023-02-26T00:32:06;8.60;;;5.60;;
7398;SDS011;3740;50.700;7.184;2023-02-26T00:34:33;8.70;;;5.60;;
7398;SDS011;3740;50.700;7.184;2023-02-26T00:37:08;9.90;;;5.10;;
7398;SDS011;3740;50.700;7.184;2023-02-26T00:39:51;7.10;;;5.00;;
7398;SDS011;3740;50.700;7.184;2023-02-26T00:42:23;7.90;;;4.90;;
7398;SDS011;3740;50.700;7.184;2023-02-26T00:44:50;6.97;;;4.50;;
7398;SDS011;3740;50.700;7.184;2023-02-26T00:47:28;9.17;;;4.97;;
7398;SDS011;3740;50.700;7.184;2023-02-26T00:55:16;9.23;;;5.03;;
7398;SDS011;3740;50.700;7.184;2023-02-26T00:57:42;8.13;;;4.87;;
7398;SDS011;3740;50.700;7.184;2023-02-26T01:00:07;8.10;;;5.10;;
7398;SDS011;3740;50.700;7.184;2023-02-26T01:02:34;8.40;;;4.80;;
7398;SDS011;3740;50.700;7.184;2023-02-26T01:05:01;7.17;;;5.00;;
7398;SDS011;3740;50.700;7.184;2023-02-26T01:07:28;6.90;;;4.83;;
7398;SDS011;3740;50.700;7.184;2023-02-26T01:09:57;7.77;;;4.80;;
7398;SDS011;3740;50.700;7.184;2023-02-26T01:12:23;7.63;;;4.80;;
7398;SDS011;3740;50.700;7.184;2023-02-26T01:14:49;8.80;;;4.83;;
7398;SDS011;3740;50.700;7.184;2023-02-26T01:22:37;6.53;;;4.97;;
7398;SDS011;3740;50.700;7.184;2023-02-26T01:28:06;8.90;;;5.00;;
7398;SDS011;3740;50.700;7.184;2023-02-26T01:30:32;8.33;;;5.03;;
7398;SDS011;3740;50.700;7.184;2023-02-26T01:35:46;8.47;;;5.30;;
7398;SDS011;3740;50.700;7.184;2023-02-26T01:38:38;8.50;;;4.77;;
7398;SDS011;3740;50.700;7.184;2023-02-26T01:43:44;9.30;;;5.67;;
7398;SDS011;3740;50.700;7.184;2023-02-26T01:46:17;9.60;;;5.20;;
7398;SDS011;3740;50.700;7.184;2023-02-26T01:48:51;8.40;;;5.23;;
7398;SDS011;3740;50.700;7.184;2023-02-26T01:51:42;8.30;;;4.50;;
7398;SDS011;3740;50.700;7.184;2023-02-26T01:54:28;7.30;;;5.20;;
7398;SDS011;3740;50.700;7.184;2023-02-26T01:56:57;7.67;;;4.60;;
7398;SDS011;3740;50.700;7.184;2023-02-26T01:59:32;7.10;;;5.20;;
7398;SDS011;3740;50.700;7.184;2023-02-26T02:02:01;6.73;;;4.70;;
7398;SDS011;3740;50.700;7.184;2023-02-26T02:04:30;6.07;;;4.53;;
7398;SDS011;3740;50.700;7.184;2023-02-26T02:06:57;6.40;;;5.10;;
7398;SDS011;3740;50.700;7.184;2023-02-26T02:09:23;6.57;;;5.30;;
7398;SDS011;3740;50.700;7.184;2023-02-26T02:11:57;7.47;;;4.70;;
7398;SDS011;3740;50.700;7.184;2023-02-26T02:14:31;10.07;;;6.60;;
7398;SDS011;3740;50.700;7.184;2023-02-26T02:16:59;9.47;;;7.33;;
7398;SDS011;3740;50.700;7.184;2023-02-26T02:19:49;11.77;;;7.37;;
7398;SDS011;3740;50.700;7.184;2023-02-26T02:33:03;13.07;;;7.80;;
7398;SDS011;3740;50.700;7.184;2023-02-26T02:35:41;7.93;;;5.90;;
7398;SDS011;3740;50.700;7.184;2023-02-26T02:38:18;9.03;;;5.70;;
7398;SDS011;3740;50.700;7.184;2023-02-26T02:40:51;8.60;;;5.30;;
7398;SDS011;3740;50.700;7.184;2023-02-26T02:43:23;7.70;;;5.60;;
7398;SDS011;3740;50.700;7.184;2023-02-26T02:46:05;8.63;;;6.30;;
7398;SDS011;3740;50.700;7.184;2023-02-26T02:49:20;8.27;;;5.97;;
7398;SDS011;3740;50.700;7.184;2023-02-26T02:51:27;8.90;;;5.40;;
7398;SDS011;3740;50.700;7.184;2023-02-26T02:57:32;9.37;;;5.67;;
7398;SDS011;3740;50.700;7.184;2023-02-26T03:00:00;6.83;;;5.67;;
7398;SDS011;3740;50.700;7.184;2023-02-26T03:02:43;7.63;;;5.23;;
7398;SDS011;3740;50.700;7.184;2023-02-26T03:05:23;8.23;;;4.93;;
7398;SDS011;3740;50.700;7.184;2023-02-26T03:07:52;5.87;;;4.60;;
7398;SDS011;3740;50.700;7.184;2023-02-26T03:10:20;7.33;;;4.53;;
7398;SDS011;3740;50.700;7.184;2023-02-26T03:12:46;7.03;;;4.97;;
7398;SDS011;3740;50.700;7.184;2023-02-26T03:15:12;7.73;;;4.97;;
7398;SDS011;3740;50.700;7.184;2023-02-26T03:17:49;6.67;;;4.97;;
7398;SDS011;3740;50.700;7.184;2023-02-26T03:23:01;8.70;;;5.00;;
7398;SDS011;3740;50.700;7.184;2023-02-26T03:25:52;7.77;;;5.00;;
7398;SDS011;3740;50.700;7.184;2023-02-26T03:28:30;8.20;;;4.70;;
7398;SDS011;3740;50.700;7.184;2023-02-26T03:31:30;10.03;;;4.80;;
7398;SDS011;3740;50.700;7.184;2023-02-26T03:39:18;7.43;;;5.57;;
7398;SDS011;3740;50.700;7.184;2023-02-26T03:41:46;7.20;;;5.90;;
7398;SDS011;3740;50.700;7.184;2023-02-26T03:44:17;7.43;;;5.63;;
7398;SDS011;3740;50.700;7.184;2023-02-26T03:46:51;6.63;;;5.60;;
7398;SDS011;3740;50.700;7.184;2023-02-26T03:50:04;6.70;;;5.50;;
7398;SDS011;3740;50.700;7.184;2023-02-26T03:52:21;7.03;;;5.50;;
7398;SDS011;3740;50.700;7.184;2023-02-26T03:54:59;7.20;;;5.07;;
7398;SDS011;3740;50.700;7.184;2023-02-26T03:57:32;8.63;;;5.10;;
7398;SDS011;3740;50.700;7.184;2023-02-26T03:59:58;7.13;;;4.70;;
7398;SDS011;3740;50.700;7.184;2023-02-26T04:02:29;7.63;;;4.73;;
7398;SDS011;3740;50.700;7.184;2023-02-26T04:07:52;7.30;;;5.70;;
7398;SDS011;3740;50.700;7.184;2023-02-26T04:10:19;8.47;;;5.60;;
7398;SDS011;3740;50.700;7.184;2023-02-26T04:12:49;7.80;;;5.13;;
7398;SDS011;3740;50.700;7.184;2023-02-26T04:15:14;7.50;;;4.63;;
7398;SDS011;3740;50.700;7.184;2023-02-26T04:17:40;5.00;;;4.50;;
7398;SDS011;3740;50.700;7.184;2023-02-26T04:20:06;7.70;;;5.27;;
7398;SDS011;3740;50.700;7.184;2023-02-26T04:22:34;6.77;;;5.17;;
7398;SDS011;3740;50.700;7.184;2023-02-26T04:25:00;6.53;;;4.73;;
7398;SDS011;3740;50.700;7.184;2023-02-26T04:27:25;5.30;;;4.80;;
7398;SDS011;3740;50.700;7.184;2023-02-26T04:29:51;7.17;;;5.33;;
7398;SDS011;3740;50.700;7.184;2023-02-26T04:32:16;5.60;;;4.87;;
7398;SDS011;3740;50.700;7.184;2023-02-26T04:34:42;6.93;;;4.97;;
7398;SDS011;3740;50.700;7.184;2023-02-26T04:37:11;5.47;;;4.97;;
7398;SDS011;3740;50.700;7.184;2023-02-26T04:39:36;7.80;;;5.23;;
7398;SDS011;3740;50.700;7.184;2023-02-26T04:42:02;4.97;;;4.50;;
7398;SDS011;3740;50.700;7.184;2023-02-26T04:44:28;5.23;;;4.73;;
7398;SDS011;3740;50.700;7.184;2023-02-26T04:46:54;8.30;;;4.93;;
7398;SDS011;3740;50.700;7.184;2023-02-26T04:49:20;5.77;;;4.50;;
7398;SDS011;3740;50.700;7.184;2023-02-26T04:51:45;7.67;;;4.70;;
7398;SDS011;3740;50.700;7.184;2023-02-26T04:54:11;5.90;;;4.70;;
7398;SDS011;3740;50.700;7.184;2023-02-26T04:56:37;6.67;;;4.67;;
7398;SDS011;3740;50.700;7.184;2023-02-26T04:59:02;7.00;;;4.67;;
7398;SDS011;3740;50.700;7.184;2023-02-26T05:01:28;5.20;;;4.53;;
7398;SDS011;3740;50.700;7.184;2023-02-26T05:03:53;6.23;;;4.30;;
7398;SDS011;3740;50.700;7.184;2023-02-26T05:06:19;6.10;;;5.03;;
7398;SDS011;3740;50.700;7.184;2023-02-26T05:08:44;5.60;;;4.70;;
7398;SDS011;3740;50.700;7.184;2023-02-26T05:11:10;7.40;;;6.10;;
7398;SDS011;3740;50.700;7.184;2023-02-26T05:13:36;9.50;;;7.70;;
7398;SDS011;3740;50.700;7.184;2023-02-26T05:16:02;14.17;;;10.33;;
7398;SDS011;3740;50.700;7.184;2023-02-26T05:18:28;11.93;;;9.60;;
7398;SDS011;3740;50.700;7.184;2023-02-26T05:20:54;9.50;;;6.63;;
7398;SDS011;3740;50.700;7.184;2023-02-26T05:23:20;8.63;;;5.90;;
7398;SDS011;3740;50.700;7.184;2023-02-26T05:25:46;7.83;;;6.63;;
7398;SDS011;3740;50.700;7.184;2023-02-26T05:28:12;7.97;;;5.90;;
7398;SDS011;3740;50.700;7.184;2023-02-26T05:30:38;8.73;;;6.10;;
7398;SDS011;3740;50.700;7.184;2023-02-26T05:33:04;8.70;;;5.70;;
7398;SDS011;3740;50.700;7.184;2023-02-26T05:35:29;8.53;;;6.03;;
7398;SDS011;3740;50.700;7.184;2023-02-26T05:37:55;9.53;;;5.77;;
7398;SDS011;3740;50.700;7.184;2023-02-26T05:40:20;9.50;;;5.70;;
7398;SDS011;3740;50.700;7.184;2023-02-26T05:42:47;5.80;;;5.30;;
7398;SDS011;3740;50.700;7.184;2023-02-26T05:45:12;6.83;;;5.53;;
7398;SDS011;3740;50.700;7.184;2023-02-26T05:47:38;6.77;;;4.77;;
7398;SDS011;3740;50.700;7.184;2023-02-26T05:50:04;7.20;;;4.90;;
7398;SDS011;3740;50.700;7.184;2023-02-26T05:52:30;5.97;;;4.70;;
7398;SDS011;3740;50.700;7.184;2023-02-26T05:54:56;7.87;;;4.73;;
7398;SDS011;3740;50.700;7.184;2023-02-26T05:57:22;6.67;;;4.87;;
7398;SDS011;3740;50.700;7.184;2023-02-26T05:59:48;5.90;;;5.10;;
7398;SDS011;3740;50.700;7.184;2023-02-26T06:02:14;5.87;;;4.77;;
7398;SDS011;3740;50.700;7.184;2023-02-26T06:04:39;6.60;;;4.80;;
7398;SDS011;3740;50.700;7.184;2023-02-26T06:07:05;7.03;;;5.10;;
7398;SDS011;3740;50.700;7.184;2023-02-26T06:09:31;7.03;;;4.90;;
7398;SDS011;3740;50.700;7.184;2023-02-26T06:11:56;5.07;;;4.57;;
7398;SDS011;3740;50.700;7.184;2023-02-26T06:14:22;5.70;;;5.10;;
7398;SDS011;3740;50.700;7.184;2023-02-26T06:16:47;7.13;;;4.90;;
7398;SDS011;3740;50.700;7.184;2023-02-26T06:19:13;7.83;;;5.33;;
7398;SDS011;3740;50.700;7.184;2023-02-26T06:21:38;7.70;;;5.13;;
7398;SDS011;3740;50.700;7.184;2023-02-26T06:24:04;6.00;;;4.83;;
7398;SDS011;3740;50.700;7.184;2023-02-26T06:26:30;6.53;;;5.17;;
7398;SDS011;3740;50.700;7.184;2023-02-26T06:28:55;7.10;;;5.30;;
7398;SDS011;3740;50.700;7.184;2023-02-26T06:31:21;7.40;;;5.53;;
7398;SDS011;3740;50.700;7.184;2023-02-26T06:33:47;6.37;;;5.33;;
7398;SDS011;3740;50.700;7.184;2023-02-26T06:36:12;8.63;;;6.13;;
7398;SDS011;3740;50.700;7.184;2023-02-26T06:38:38;7.60;;;5.30;;
7398;SDS011;3740;50.700;7.184;2023-02-26T06:41:04;5.90;;;5.30;;
7398;SDS011;3740;50.700;7.184;2023-02-26T06:43:30;5.83;;;4.80;;
7398;SDS011;3740;50.700;7.184;2023-02-26T06:45:56;5.97;;;5.20;;
7398;SDS011;3740;50.700;7.184;2023-02-26T06:48:23;7.77;;;5.30;;
7398;SDS011;3740;50.700;7.184;2023-02-26T06:50:49;8.07;;;5.60;;
7398;SDS011;3740;50.700;7.184;2023-02-26T06:53:14;6.83;;;5.63;;
7398;SDS011;3740;50.700;7.184;2023-02-26T06:55:43;10.10;;;6.60;;
7398;SDS011;3740;50.700;7.184;2023-02-26T06:58:10;8.00;;;6.60;;
7398;SDS011;3740;50.700;7.184;2023-02-26T07:00:36;9.20;;;7.33;;
7398;SDS011;3740;50.700;7.184;2023-02-26T07:03:02;12.10;;;8.33;;
7398;SDS011;3740;50.700;7.184;2023-02-26T07:05:29;12.20;;;8.97;;
7398;SDS011;3740;50.700;7.184;2023-02-26T07:07:54;13.00;;;9.07;;
7398;SDS011;3740;50.700;7.184;2023-02-26T07:10:20;13.50;;;9.93;;
7398;SDS011;3740;50.700;7.184;2023-02-26T07:12:46;13.67;;;10.57;;
7398;SDS011;3740;50.700;7.184;2023-02-26T07:15:12;15.07;;;11.00;;
7398;SDS011;3740;50.700;7.184;2023-02-26T07:17:38;11.73;;;10.27;;
7398;SDS011;3740;50.700;7.184;2023-02-26T07:20:04;11.77;;;9.20;;
7398;SDS011;3740;50.700;7.184;2023-02-26T07:22:32;10.93;;;8.13;;
7398;SDS011;3740;50.700;7.184;2023-02-26T07:24:58;9.80;;;7.60;;
7398;SDS011;3740;50.700;7.184;2023-02-26T07:27:24;9.57;;;8.13;;
7398;SDS011;3740;50.700;7.184;2023-02-26T07:29:50;10.63;;;7.23;;
7398;SDS011;3740;50.700;7.184;2023-02-26T07:32:15;8.93;;;7.30;;
7398;SDS011;3740;50.700;7.184;2023-02-26T07:34:41;7.87;;;6.57;;
7398;SDS011;3740;50.700;7.184;2023-02-26T07:37:07;12.60;;;10.37;;
7398;SDS011;3740;50.700;7.184;2023-02-26T07:39:32;8.93;;;7.23;;
7398;SDS011;3740;50.700;7.184;2023-02-26T07:41:58;8.60;;;7.03;;
7398;SDS011;3740;50.700;7.184;2023-02-26T07:44:23;9.90;;;7.33;;
7398;SDS011;3740;50.700;7.184;2023-02-26T07:46:49;9.47;;;8.00;;
7398;SDS011;3740;50.700;7.184;2023-02-26T07:49:14;10.20;;;7.00;;
7398;SDS011;3740;50.700;7.184;2023-02-26T07:51:40;9.17;;;6.40;;
7398;SDS011;3740;50.700;7.184;2023-02-26T07:54:09;6.77;;;6.10;;
7398;SDS011;3740;50.700;7.184;2023-02-26T07:56:38;9.07;;;6.90;;
7398;SDS011;3740;50.700;7.184;2023-02-26T07:59:05;8.07;;;6.80;;
7398;SDS011;3740;50.700;7.184;2023-02-26T08:01:31;11.23;;;8.93;;
7398;SDS011;3740;50.700;7.184;2023-02-26T08:03:56;10.63;;;8.40;;
7398;SDS011;3740;50.700;7.184;2023-02-26T08:06:22;7.27;;;4.83;;
7398;SDS011;3740;50.700;7.184;2023-02-26T08:08:47;5.30;;;4.47;;
7398;SDS011;3740;50.700;7.184;2023-02-26T08:11:13;5.67;;;4.60;;
7398;SDS011;3740;50.700;7.184;2023-02-26T08:13:38;7.03;;;5.00;;
7398;SDS011;3740;50.700;7.184;2023-02-26T08:16:04;5.77;;;4.70;;
7398;SDS011;3740;50.700;7.184;2023-02-26T08:18:30;234.03;;;22.20;;
7398;SDS011;3740;50.700;7.184;2023-02-26T08:20:55;7.63;;;6.57;;
7398;SDS011;3740;50.700;7.184;2023-02-26T08:23:21;8.27;;;7.37;;
7398;SDS011;3740;50.700;7.184;2023-02-26T08:25:46;11.87;;;8.97;;
7398;SDS011;3740;50.700;7.184;2023-02-26T08:28:13;11.00;;;8.90;;
7398;SDS011;3740;50.700;7.184;2023-02-26T08:30:38;11.23;;;8.47;;
7398;SDS011;3740;50.700;7.184;2023-02-26T08:33:04;9.57;;;7.70;;
7398;SDS011;3740;50.700;7.184;2023-02-26T08:35:30;8.03;;;7.13;;
7398;SDS011;3740;50.700;7.184;2023-02-26T08:37:55;6.80;;;5.70;;
7398;SDS011;3740;50.700;7.184;2023-02-26T08:40:21;5.37;;;4.50;;
7398;SDS011;3740;50.700;7.184;2023-02-26T08:42:47;7.60;;;4.70;;
7398;SDS011;3740;50.700;7.184;2023-02-26T08:45:13;5.67;;;4.13;;
7398;SDS011;3740;50.700;7.184;2023-02-26T08:47:38;5.17;;;4.23;;
7398;SDS011;3740;50.700;7.184;2023-02-26T08:50:07;5.33;;;4.10;;
7398;SDS011;3740;50.700;7.184;2023-02-26T08:52:34;6.33;;;4.53;;
7398;SDS011;3740;50.700;7.184;2023-02-26T08:55:00;4.63;;;4.17;;
7398;SDS011;3740;50.700;7.184;2023-02-26T08:57:25;7.50;;;4.20;;
7398;SDS011;3740;50.700;7.184;2023-02-26T08:59:51;5.37;;;4.50;;
7398;SDS011;3740;50.700;7.184;2023-02-26T09:02:16;4.80;;;4.27;;
7398;SDS011;3740;50.700;7.184;2023-02-26T09:04:42;6.73;;;4.30;;
7398;SDS011;3740;50.700;7.184;2023-02-26T09:07:08;5.53;;;4.30;;
7398;SDS011;3740;50.700;7.184;2023-02-26T09:09:33;5.10;;;3.77;;
7398;SDS011;3740;50.700;7.184;2023-02-26T09:11:59;6.97;;;4.10;;
7398;SDS011;3740;50.700;7.184;2023-02-26T09:14:25;5.40;;;3.87;;
7398;SDS011;3740;50.700;7.184;2023-02-26T09:16:50;6.07;;;3.80;;
7398;SDS011;3740;50.700;7.184;2023-02-26T09:19:16;5.17;;;3.63;;
7398;SDS011;3740;50.700;7.184;2023-02-26T09:21:41;4.30;;;3.53;;
7398;SDS011;3740;50.700;7.184;2023-02-26T09:24:08;5.00;;;3.30;;
7398;SDS011;3740;50.700;7.184;2023-02-26T09:26:33;3.67;;;3.30;;
7398;SDS011;3740;50.700;7.184;2023-02-26T09:28:59;5.87;;;3.93;;
7398;SDS011;3740;50.700;7.184;2023-02-26T09:31:25;5.37;;;3.90;;
7398;SDS011;3740;50.700;7.184;2023-02-26T09:33:52;5.73;;;3.70;;
7398;SDS011;3740;50.700;7.184;2023-02-26T09:36:17;4.30;;;3.23;;
7398;SDS011;3740;50.700;7.184;2023-02-26T09:38:43;3.40;;;3.10;;
7398;SDS011;3740;50.700;7.184;2023-02-26T09:46:25;3.80;;;2.90;;
7398;SDS011;3740;50.700;7.184;2023-02-26T09:51:30;6.13;;;2.87;;
7398;SDS011;3740;50.700;7.184;2023-02-26T09:53:58;2.77;;;2.47;;
7398;SDS011;3740;50.700;7.184;2023-02-26T09:56:26;4.00;;;2.53;;
7398;SDS011;3740;50.700;7.184;2023-02-26T09:58:58;4.57;;;2.80;;
7398;SDS011;3740;50.700;7.184;2023-02-26T10:09:50;3.67;;;2.60;;
7398;SDS011;3740;50.700;7.184;2023-02-26T10:12:38;3.07;;;2.10;;
7398;SDS011;3740;50.700;7.184;2023-02-26T10:20:19;2.20;;;1.90;;
7398;SDS011;3740;50.700;7.184;2023-02-26T10:23:15;3.10;;;1.80;;
7398;SDS011;3740;50.700;7.184;2023-02-26T10:25:47;2.03;;;1.93;;
7398;SDS011;3740;50.700;7.184;2023-02-26T10:28:25;2.20;;;1.67;;
7398;SDS011;3740;50.700;7.184;2023-02-26T10:40:02;2.17;;;1.23;;
7398;SDS011;3740;50.700;7.184;2023-02-26T10:42:38;1.60;;;1.17;;
7398;SDS011;3740;50.700;7.184;2023-02-26T10:50:56;1.85;;;1.50;;
7398;SDS011;3740;50.700;7.184;2023-02-26T10:53:25;2.45;;;1.42;;
7398;SDS011;3740;50.700;7.184;2023-02-26T10:55:55;1.85;;;1.55;;
7398;SDS011;3740;50.700;7.184;2023-02-26T10:58:28;2.05;;;1.85;;
7398;SDS011;3740;50.700;7.184;2023-02-26T11:00:54;3.22;;;1.45;;
7398;SDS011;3740;50.700;7.184;2023-02-26T11:03:38;2.30;;;1.60;;
7398;SDS011;3740;50.700;7.184;2023-02-26T11:06:06;3.15;;;1.40;;
7398;SDS011;3740;50.700;7.184;2023-02-26T11:08:39;1.20;;;1.00;;
7398;SDS011;3740;50.700;7.184;2023-02-26T11:14:05;1.33;;;1.23;;
7398;SDS011;3740;50.700;7.184;2023-02-26T11:16:32;0.95;;;0.90;;
7398;SDS011;3740;50.700;7.184;2023-02-26T11:18:59;1.65;;;1.10;;
7398;SDS011;3740;50.700;7.184;2023-02-26T11:21:27;1.30;;;1.10;;
7398;SDS011;3740;50.700;7.184;2023-02-26T11:24:00;1.63;;;1.25;;
7398;SDS011;3740;50.700;7.184;2023-02-26T11:26:30;1.25;;;1.02;;
7398;SDS011;3740;50.700;7.184;2023-02-26T11:28:59;1.92;;;1.20;;
7398;SDS011;3740;50.700;7.184;2023-02-26T11:31:25;1.33;;;0.95;;
7398;SDS011;3740;50.700;7.184;2023-02-26T11:33:51;1.52;;;1.20;;
7398;SDS011;3740;50.700;7.184;2023-02-26T11:36:21;1.77;;;1.20;;
7398;SDS011;3740;50.700;7.184;2023-02-26T11:38:54;2.10;;;0.95;;
7398;SDS011;3740;50.700;7.184;2023-02-26T11:41:25;1.17;;;1.08;;
7398;SDS011;3740;50.700;7.184;2023-02-26T11:44:04;1.63;;;1.10;;
7398;SDS011;3740;50.700;7.184;2023-02-26T11:46:35;2.20;;;1.40;;
7398;SDS011;3740;50.700;7.184;2023-02-26T11:49:09;2.67;;;1.43;;
7398;SDS011;3740;50.700;7.184;2023-02-26T11:51:41;1.63;;;1.33;;
7398;SDS011;3740;50.700;7.184;2023-02-26T11:54:19;2.08;;;1.52;;
7398;SDS011;3740;50.700;7.184;2023-02-26T11:56:51;2.43;;;1.80;;
7398;SDS011;3740;50.700;7.184;2023-02-26T11:59:24;2.50;;;1.70;;
7398;SDS011;3740;50.700;7.184;2023-02-26T12:01:50;1.43;;;1.30;;
7398;SDS011;3740;50.700;7.184;2023-02-26T12:04:18;1.07;;;1.00;;
7398;SDS011;3740;50.700;7.184;2023-02-26T12:06:53;2.70;;;1.50;;
7398;SDS011;3740;50.700;7.184;2023-02-26T12:09:20;1.40;;;1.30;;
7398;SDS011;3740;50.700;7.184;2023-02-26T12:15:41;1.60;;;1.20;;
7398;SDS011;3740;50.700;7.184;2023-02-26T12:23:57;1.80;;;1.40;;
7398;SDS011;3740;50.700;7.184;2023-02-26T12:26:46;1.33;;;1.23;;
7398;SDS011;3740;50.700;7.184;2023-02-26T12:29:43;1.73;;;1.53;;
7398;SDS011;3740;50.700;7.184;2023-02-26T12:32:21;2.87;;;1.57;;
7398;SDS011;3740;50.700;7.184;2023-02-26T12:35:07;2.33;;;1.50;;
7398;SDS011;3740;50.700;7.184;2023-02-26T12:37:54;1.70;;;1.60;;
7398;SDS011;3740;50.700;7.184;2023-02-26T12:40:59;2.70;;;1.20;;
7398;SDS011;3740;50.700;7.184;2023-02-26T12:43:48;1.57;;;1.40;;
7398;SDS011;3740;50.700;7.184;2023-02-26T12:57:41;1.90;;;1.43;;
7398;SDS011;3740;50.700;7.184;2023-02-26T13:11:15;1.73;;;1.40;;
7398;SDS011;3740;50.700;7.184;2023-02-26T13:16:50;2.47;;;1.40;;
7398;SDS011;3740;50.700;7.184;2023-02-26T13:19:57;2.60;;;1.60;;
7398;SDS011;3740;50.700;7.184;2023-02-26T13:22:35;1.67;;;1.20;;
7398;SDS011;3740;50.700;7.184;2023-02-26T13:25:08;1.35;;;1.25;;
7398;SDS011;3740;50.700;7.184;2023-02-26T13:27:55;1.43;;;1.27;;
7398;SDS011;3740;50.700;7.184;2023-02-26T13:30:27;2.50;;;1.40;;
7398;SDS011;3740;50.700;7.184;2023-02-26T13:32:58;1.23;;;1.03;;
7398;SDS011;3740;50.700;7.184;2023-02-26T13:35:25;2.07;;;1.20;;
7398;SDS011;3740;50.700;7.184;2023-02-26T13:37:56;1.57;;;1.30;;
7398;SDS011;3740;50.700;7.184;2023-02-26T13:40:34;2.37;;;1.60;;
7398;SDS011;3740;50.700;7.184;2023-02-26T13:56:16;1.60;;;1.30;;
7398;SDS011;3740;50.700;7.184;2023-02-26T13:58:53;2.30;;;1.37;;
7398;SDS011;3740;50.700;7.184;2023-02-26T14:06:53;1.77;;;1.50;;
7398;SDS011;3740;50.700;7.184;2023-02-26T14:11:56;2.23;;;1.40;;
7398;SDS011;3740;50.700;7.184;2023-02-26T14:14:33;2.10;;;1.07;;
7398;SDS011;3740;50.700;7.184;2023-02-26T14:19:39;3.17;;;1.70;;
7398;SDS011;3740;50.700;7.184;2023-02-26T14:27:37;2.03;;;1.20;;
7398;SDS011;3740;50.700;7.184;2023-02-26T14:35:23;3.30;;;1.80;;
7398;SDS011;3740;50.700;7.184;2023-02-26T14:40:35;1.80;;;1.70;;
7398;SDS011;3740;50.700;7.184;2023-02-26T14:43:04;1.97;;;1.47;;
7398;SDS011;3740;50.700;7.184;2023-02-26T14:45:38;2.07;;;1.67;;
7398;SDS011;3740;50.700;7.184;2023-02-26T14:48:10;2.00;;;1.60;;
7398;SDS011;3740;50.700;7.184;2023-02-26T14:50:42;1.70;;;1.60;;
7398;SDS011;3740;50.700;7.184;2023-02-26T15:15:22;1.40;;;1.30;;
7398;SDS011;3740;50.700;7.184;2023-02-26T15:21:02;2.73;;;2.00;;
7398;SDS011;3740;50.700;7.184;2023-02-26T15:23:50;2.70;;;1.53;;
7398;SDS011;3740;50.700;7.184;2023-02-26T15:26:20;2.67;;;2.07;;
7398;SDS011;3740;50.700;7.184;2023-02-26T15:28:48;1.27;;;1.17;;
7398;SDS011;3740;50.700;7.184;2023-02-26T15:31:17;2.10;;;1.40;;
7398;SDS011;3740;50.700;7.184;2023-02-26T15:33:48;1.30;;;1.20;;
7398;SDS011;3740;50.700;7.184;2023-02-26T15:36:16;1.67;;;1.30;;
7398;SDS011;3740;50.700;7.184;2023-02-26T15:39:05;2.83;;;1.30;;
7398;SDS011;3740;50.700;7.184;2023-02-26T15:41:33;2.07;;;1.87;;
7398;SDS011;3740;50.700;7.184;2023-02-26T15:44:01;2.03;;;1.40;;
7398;SDS011;3740;50.700;7.184;2023-02-26T15:46:34;2.10;;;1.60;;
7398;SDS011;3740;50.700;7.184;2023-02-26T15:51:51;2.00;;;1.43;;
7398;SDS011;3740;50.700;7.184;2023-02-26T15:54:19;1.60;;;1.50;;
7398;SDS011;3740;50.700;7.184;2023-02-26T15:56:47;1.80;;;1.30;;
7398;SDS011;3740;50.700;7.184;2023-02-26T15:59:15;1.93;;;1.80;;
7398;SDS011;3740;50.700;7.184;2023-02-26T16:01:48;2.13;;;1.60;;
7398;SDS011;3740;50.700;7.184;2023-02-26T16:04:15;2.07;;;1.83;;
7398;SDS011;3740;50.700;7.184;2023-02-26T16:06:44;1.33;;;1.30;;
7398;SDS011;3740;50.700;7.184;2023-02-26T16:09:33;2.53;;;1.70;;
7398;SDS011;3740;50.700;7.184;2023-02-26T16:12:02;2.20;;;1.40;;
7398;SDS011;3740;50.700;7.184;2023-02-26T16:14:43;2.73;;;1.47;;
7398;SDS011;3740;50.700;7.184;2023-02-26T16:17:15;2.47;;;1.80;;
7398;SDS011;3740;50.700;7.184;2023-02-26T16:19:50;2.60;;;1.80;;
7398;SDS011;3740;50.700;7.184;2023-02-26T16:25:18;2.63;;;2.10;;
7398;SDS011;3740;50.700;7.184;2023-02-26T16:28:33;2.03;;;1.67;;
7398;SDS011;3740;50.700;7.184;2023-02-26T16:30:41;2.70;;;1.57;;
7398;SDS011;3740;50.700;7.184;2023-02-26T16:33:10;2.10;;;1.90;;
7398;SDS011;3740;50.700;7.184;2023-02-26T16:35:41;2.47;;;1.70;;
7398;SDS011;3740;50.700;7.184;2023-02-26T16:38:17;2.30;;;2.07;;
7398;SDS011;3740;50.700;7.184;2023-02-26T16:40:55;2.60;;;1.57;;
7398;SDS011;3740;50.700;7.184;2023-02-26T16:43:29;1.63;;;1.50;;
7398;SDS011;3740;50.700;7.184;2023-02-26T16:45:58;2.97;;;1.70;;
7398;SDS011;3740;50.700;7.184;2023-02-26T16:48:29;3.33;;;1.83;;
7398;SDS011;3740;50.700;7.184;2023-02-26T16:51:00;2.10;;;1.87;;
7398;SDS011;3740;50.700;7.184;2023-02-26T16:53:34;2.80;;;1.60;;
7398;SDS011;3740;50.700;7.184;2023-02-26T16:56:17;2.03;;;1.77;;
7398;SDS011;3740;50.700;7.184;2023-02-26T16:58:46;3.63;;;2.03;;
7398;SDS011;3740;50.700;7.184;2023-02-26T17:01:16;1.80;;;1.57;;
7398;SDS011;3740;50.700;7.184;2023-02-26T17:03:45;1.90;;;1.70;;
7398;SDS011;3740;50.700;7.184;2023-02-26T17:06:14;2.00;;;1.80;;
7398;SDS011;3740;50.700;7.184;2023-02-26T17:14:02;1.80;;;1.70;;
7398;SDS011;3740;50.700;7.184;2023-02-26T17:16:33;2.07;;;1.80;;
7398;SDS011;3740;50.700;7.184;2023-02-26T17:18:59;2.13;;;1.60;;
7398;SDS011;3740;50.700;7.184;2023-02-26T17:21:25;2.93;;;2.00;;
7398;SDS011;3740;50.700;7.184;2023-02-26T17:23:51;2.50;;;2.17;;
7398;SDS011;3740;50.700;7.184;2023-02-26T17:26:17;4.67;;;2.20;;
7398;SDS011;3740;50.700;7.184;2023-02-26T17:28:42;3.13;;;2.10;;
7398;SDS011;3740;50.700;7.184;2023-02-26T17:31:08;2.23;;;2.00;;
7398;SDS011;3740;50.700;7.184;2023-02-26T17:33:36;3.30;;;2.10;;
7398;SDS011;3740;50.700;7.184;2023-02-26T17:36:04;2.37;;;2.17;;
7398;SDS011;3740;50.700;7.184;2023-02-26T17:38:31;2.40;;;2.20;;
7398;SDS011;3740;50.700;7.184;2023-02-26T17:40:57;2.97;;;2.70;;
7398;SDS011;3740;50.700;7.184;2023-02-26T17:43:24;14.90;;;10.63;;
7398;SDS011;3740;50.700;7.184;2023-02-26T17:45:51;6.30;;;5.30;;
7398;SDS011;3740;50.700;7.184;2023-02-26T17:48:17;5.00;;;3.60;;
7398;SDS011;3740;50.700;7.184;2023-02-26T17:50:50;4.03;;;3.20;;
7398;SDS011;3740;50.700;7.184;2023-02-26T17:53:17;3.70;;;3.27;;
7398;SDS011;3740;50.700;7.184;2023-02-26T17:55:44;3.57;;;2.67;;
7398;SDS011;3740;50.700;7.184;2023-02-26T18:00:41;3.63;;;2.90;;
7398;SDS011;3740;50.700;7.184;2023-02-26T18:03:08;3.87;;;3.37;;
7398;SDS011;3740;50.700;7.184;2023-02-26T18:05:35;3.57;;;3.10;;
7398;SDS011;3740;50.700;7.184;2023-02-26T18:08:20;5.87;;;3.17;;
7398;SDS011;3740;50.700;7.184;2023-02-26T18:10:48;4.53;;;3.60;;
7398;SDS011;3740;50.700;7.184;2023-02-26T18:13:14;5.63;;;3.83;;
7398;SDS011;3740;50.700;7.184;2023-02-26T18:15:39;5.60;;;4.50;;
7398;SDS011;3740;50.700;7.184;2023-02-26T18:18:07;6.27;;;5.30;;
7398;SDS011;3740;50.700;7.184;2023-02-26T18:20:34;7.67;;;6.30;;
7398;SDS011;3740;50.700;7.184;2023-02-26T18:22:59;7.63;;;6.80;;
7398;SDS011;3740;50.700;7.184;2023-02-26T18:25:25;7.23;;;5.87;;
7398;SDS011;3740;50.700;7.184;2023-02-26T18:27:52;12.23;;;9.50;;
7398;SDS011;3740;50.700;7.184;2023-02-26T18:30:24;12.67;;;9.13;;
7398;SDS011;3740;50.700;7.184;2023-02-26T18:32:52;14.00;;;10.13;;
7398;SDS011;3740;50.700;7.184;2023-02-26T18:35:18;11.20;;;8.77;;
7398;SDS011;3740;50.700;7.184;2023-02-26T18:37:44;11.80;;;8.93;;
7398;SDS011;3740;50.700;7.184;2023-02-26T18:40:11;9.43;;;7.83;;
7398;SDS011;3740;50.700;7.184;2023-02-26T18:42:39;10.40;;;8.47;;
7398;SDS011;3740;50.700;7.184;2023-02-26T18:45:05;10.83;;;8.53;;
7398;SDS011;3740;50.700;7.184;2023-02-26T18:47:31;9.17;;;7.40;;
7398;SDS011;3740;50.700;7.184;2023-02-26T18:49:56;11.17;;;8.10;;